Terminal Aerodrome Forecast
Issued by NWS Albany, NY

Home | Current Version | Previous Version | Text Only | Print | Product List | Glossary On
Versions: 1 2 3 4 5 6 7 8 9 10 11 12 13 14 15 16 17 18 19 20
000
FTUS41 KALY 221100 RRA
TAFGFL
TAF
KGFL 221145Z 2212/2312 00000KT P6SM SKC
     FM221700 19007KT P6SM FEW060 SCT250
     FM230200 18003KT P6SM BKN060=

USA.gov is the U.S. government's official web portal to all federal, state and local government web resources and services.